createdAt,value
2023-05-19T00:00:50.975Z,96609.13
2023-05-19T00:02:23.622Z,96602.13
2023-05-19T00:03:57.724Z,96607.66
2023-05-19T00:05:30.983Z,96611.72
2023-05-19T00:07:02.771Z,96612.72
2023-05-19T00:08:34.589Z,96605.66
2023-05-19T00:10:07.601Z,96611.34
2023-05-19T00:11:40.988Z,96604.97
2023-05-19T00:13:13.161Z,96596.00
2023-05-19T00:14:45.295Z,96598.91
2023-05-19T00:16:17.126Z,96593.00
2023-05-19T00:17:48.949Z,96594.34
2023-05-19T00:19:22.425Z,96587.56
2023-05-19T00:20:54.190Z,96590.75
2023-05-19T00:22:25.972Z,96590.59
2023-05-19T00:23:57.823Z,96601.72
2023-05-19T00:25:29.564Z,96597.69
2023-05-19T00:27:02.627Z,96594.94
2023-05-19T00:28:34.289Z,96592.16
2023-05-19T00:30:07.573Z,96593.69
2023-05-19T00:31:39.274Z,96594.13
2023-05-19T00:33:11.089Z,96597.50
2023-05-19T00:34:43.024Z,96592.59
2023-05-19T00:36:14.833Z,96588.38
2023-05-19T00:37:46.709Z,96590.63
2023-05-19T00:39:18.349Z,96597.97
2023-05-19T00:40:50.077Z,96593.53
2023-05-19T00:42:23.069Z,96590.53
2023-05-19T00:43:54.748Z,96592.34
2023-05-19T00:45:26.405Z,96591.47
2023-05-19T00:46:58.174Z,96583.78
2023-05-19T00:48:29.970Z,96580.81
2023-05-19T00:50:01.648Z,96587.69
2023-05-19T00:51:33.393Z,96588.13
2023-05-19T00:53:05.108Z,96589.53
2023-05-19T00:54:37.126Z,96584.09
2023-05-19T00:56:08.895Z,96583.66
2023-05-19T00:57:42.042Z,96580.19
2023-05-19T00:59:13.683Z,96577.31
2023-05-19T01:00:45.841Z,96583.13
2023-05-19T01:02:18.147Z,96573.44
2023-05-19T01:03:50.068Z,96578.63
2023-05-19T01:05:21.963Z,96574.94
2023-05-19T01:06:54.986Z,96571.09
2023-05-19T01:08:26.735Z,96565.09
2023-05-19T01:09:58.490Z,96565.41
2023-05-19T01:11:30.240Z,96573.97
2023-05-19T01:13:04.460Z,96562.31
2023-05-19T01:14:36.123Z,96562.31
2023-05-19T01:16:10.226Z,96562.53
2023-05-19T01:17:45.562Z,96570.50
2023-05-19T01:19:27.997Z,96568.91
2023-05-19T01:21:07.864Z,96568.00
2023-05-19T01:22:47.420Z,96569.84
2023-05-19T01:24:39.853Z,96567.66
2023-05-19T01:26:22.226Z,96571.66
2023-05-19T01:28:18.900Z,96566.28
2023-05-19T01:30:18.011Z,96575.16
2023-05-19T01:31:50.532Z,96573.03
2023-05-19T01:33:23.058Z,96582.88
2023-05-19T01:34:54.819Z,96585.78
2023-05-19T01:36:26.753Z,96590.19
2023-05-19T01:37:59.136Z,96587.63
2023-05-19T01:39:31.004Z,96593.28
2023-05-19T01:41:03.964Z,96590.19
2023-05-19T01:42:37.955Z,96588.06
2023-05-19T01:44:10.052Z,96584.06
2023-05-19T01:45:43.322Z,96587.19
2023-05-19T01:47:15.009Z,96582.44
2023-05-19T01:48:46.676Z,96591.25
2023-05-19T01:50:18.448Z,96589.81
2023-05-19T01:51:50.346Z,96579.38
2023-05-19T01:53:22.036Z,96577.09
2023-05-19T01:54:53.789Z,96578.16
2023-05-19T01:56:29.981Z,96574.09
2023-05-19T01:58:06.900Z,96576.31
2023-05-19T01:59:43.461Z,96573.41
2023-05-19T02:01:22.044Z,96578.09
2023-05-19T02:02:57.215Z,96576.56
2023-05-19T02:04:33.328Z,96581.22
2023-05-19T02:06:11.856Z,96578.75
2023-05-19T02:07:44.904Z,96584.94
2023-05-19T02:09:20.172Z,96576.31
2023-05-19T02:10:53.373Z,96578.91
2023-05-19T02:12:28.059Z,96575.88
2023-05-19T02:14:01.343Z,96576.75
2023-05-19T02:15:35.488Z,96574.19
2023-05-19T02:17:08.583Z,96580.00
2023-05-19T02:18:40.635Z,96578.97
2023-05-19T02:20:12.400Z,96586.22
2023-05-19T02:21:44.335Z,96576.41
2023-05-19T02:23:16.070Z,96576.88
2023-05-19T02:24:51.823Z,96584.66
2023-05-19T02:26:23.923Z,96580.78
2023-05-19T02:27:55.967Z,96583.47
2023-05-19T02:29:27.661Z,96580.00
2023-05-19T02:30:59.412Z,96565.38
2023-05-19T02:32:32.547Z,96578.13
2023-05-19T02:34:04.295Z,96576.31
2023-05-19T02:35:35.956Z,96570.59
2023-05-19T02:37:07.736Z,96573.94
2023-05-19T02:38:39.511Z,96571.72
2023-05-19T02:40:11.436Z,96565.66
2023-05-19T02:41:43.217Z,96569.44
2023-05-19T02:43:14.898Z,96565.03
2023-05-19T02:44:46.564Z,96569.00
2023-05-19T02:46:18.298Z,96567.94
2023-05-19T02:47:51.405Z,96561.91
2023-05-19T02:49:23.085Z,96562.78
2023-05-19T02:50:54.796Z,96565.16
2023-05-19T02:52:26.630Z,96562.94
2023-05-19T02:53:58.424Z,96566.03
2023-05-19T02:55:30.176Z,96558.59
2023-05-19T02:57:01.889Z,96552.13
2023-05-19T02:58:33.599Z,96555.03
2023-05-19T03:00:06.878Z,96549.50
2023-05-19T03:01:40.483Z,96554.72
2023-05-19T03:03:14.992Z,96551.41
2023-05-19T03:04:46.874Z,96545.47
2023-05-19T03:06:18.636Z,96544.16
2023-05-19T03:07:50.447Z,96549.06
2023-05-19T03:09:25.376Z,96548.63
2023-05-19T03:10:59.718Z,96549.50
2023-05-19T03:12:32.525Z,96551.59
2023-05-19T03:14:04.520Z,96548.38
2023-05-19T03:15:39.278Z,96552.59
2023-05-19T03:17:11.043Z,96552.59
2023-05-19T03:18:44.136Z,96557.84
2023-05-19T03:20:18.320Z,96555.94
2023-05-19T03:21:50.215Z,96558.50
2023-05-19T03:23:24.912Z,96557.09
2023-05-19T03:24:58.494Z,96557.16
2023-05-19T03:26:30.404Z,96561.31
2023-05-19T03:28:02.086Z,96555.97
2023-05-19T03:29:33.760Z,96554.50
2023-05-19T03:31:08.338Z,96558.81
2023-05-19T03:32:40.172Z,96561.31
2023-05-19T03:34:15.114Z,96560.28
2023-05-19T03:35:46.849Z,96570.06
2023-05-19T03:37:21.559Z,96566.38
2023-05-19T03:38:53.227Z,96557.09
2023-05-19T03:40:24.925Z,96568.84
2023-05-19T03:41:56.629Z,96566.16
2023-05-19T03:43:28.309Z,96556.94
2023-05-19T03:45:00.029Z,96564.97
2023-05-19T03:46:34.714Z,96558.16
2023-05-19T03:48:09.214Z,96566.97
2023-05-19T03:49:42.254Z,96563.28
2023-05-19T03:51:16.675Z,96566.19
2023-05-19T03:52:48.927Z,96562.19
2023-05-19T03:54:23.868Z,96562.63
2023-05-19T03:55:56.724Z,96555.75
2023-05-19T03:57:29.925Z,96567.19
2023-05-19T03:59:01.546Z,96567.19
2023-05-19T04:00:33.762Z,96568.97
2023-05-19T04:02:08.908Z,96569.03
2023-05-19T04:03:40.776Z,96571.06
2023-05-19T04:05:14.149Z,96565.06
2023-05-19T04:06:48.684Z,96567.75
2023-05-19T04:08:20.475Z,96572.53
2023-05-19T04:09:52.192Z,96563.19
2023-05-19T04:11:23.834Z,96572.16
2023-05-19T04:12:55.457Z,96567.50
2023-05-19T04:14:27.113Z,96568.25
2023-05-19T04:15:58.837Z,96561.31
2023-05-19T04:17:30.636Z,96573.28
2023-05-19T04:19:05.960Z,96566.28
2023-05-19T04:20:39.103Z,96563.41
2023-05-19T04:22:10.823Z,96575.41
2023-05-19T04:23:42.479Z,96569.94
2023-05-19T04:25:14.376Z,96571.19
2023-05-19T04:26:47.179Z,96568.53
2023-05-19T04:28:18.935Z,96570.06
2023-05-19T04:29:50.858Z,96570.53
2023-05-19T04:31:22.822Z,96569.97
2023-05-19T04:32:54.604Z,96574.63
2023-05-19T04:34:31.364Z,96574.28
2023-05-19T04:36:08.400Z,96577.06
2023-05-19T04:37:40.586Z,96571.50
2023-05-19T04:39:12.422Z,96571.63
2023-05-19T04:40:46.086Z,96579.19
2023-05-19T04:42:19.473Z,96571.19
2023-05-19T04:43:54.569Z,96572.63
2023-05-19T04:45:26.283Z,96576.63
2023-05-19T04:46:58.962Z,96576.50
2023-05-19T04:48:31.031Z,96577.94
2023-05-19T04:50:02.711Z,96575.63
2023-05-19T04:51:38.458Z,96582.38
2023-05-19T04:53:10.189Z,96584.41
2023-05-19T04:54:44.271Z,96581.84
2023-05-19T04:56:18.456Z,96584.28
2023-05-19T04:57:50.724Z,96580.94
2023-05-19T04:59:23.167Z,96583.84
2023-05-19T05:01:00.780Z,96586.16
2023-05-19T05:02:35.419Z,96579.16
2023-05-19T05:04:07.218Z,96587.94
2023-05-19T05:05:41.818Z,96576.59
2023-05-19T05:07:14.880Z,96571.84
2023-05-19T05:08:46.526Z,96585.72
2023-05-19T05:10:18.240Z,96574.38
2023-05-19T05:11:52.148Z,96584.38
2023-05-19T05:13:24.438Z,96580.41
2023-05-19T05:14:59.996Z,96574.84
2023-05-19T05:16:35.262Z,96582.38
2023-05-19T05:18:11.225Z,96576.81
2023-05-19T05:19:43.634Z,96578.59
2023-05-19T05:21:19.152Z,96580.81
2023-05-19T05:22:55.891Z,96581.72
2023-05-19T05:24:28.153Z,96581.38
2023-05-19T05:26:00.501Z,96585.28
2023-05-19T05:27:32.780Z,96593.94
2023-05-19T05:29:04.539Z,96584.69
2023-05-19T05:30:36.511Z,96588.13
2023-05-19T05:32:08.407Z,96579.25
2023-05-19T05:35:31.182Z,96579.59
2023-05-19T05:37:02.869Z,96591.25
2023-05-19T05:38:37.381Z,96588.56
2023-05-19T05:40:29.613Z,96585.94
2023-05-19T05:42:40.008Z,96589.25
2023-05-19T05:44:11.803Z,96588.78
2023-05-19T05:45:46.620Z,96587.94
2023-05-19T05:47:18.988Z,96587.91
2023-05-19T05:48:51.460Z,96587.69
2023-05-19T05:50:25.803Z,96592.66
2023-05-19T05:52:05.914Z,96597.75
2023-05-19T05:53:41.984Z,96587.53
2023-05-19T05:55:17.894Z,96594.75
2023-05-19T05:56:50.426Z,96593.88
2023-05-19T05:58:22.204Z,96590.19
2023-05-19T05:59:57.041Z,96592.31
2023-05-19T06:01:39.935Z,96594.88
2023-05-19T06:03:18.857Z,96595.00
2023-05-19T06:04:50.938Z,96594.22
2023-05-19T06:06:30.277Z,96588.88
2023-05-19T06:08:02.178Z,96595.56
2023-05-19T06:09:39.154Z,96599.88
2023-05-19T06:11:13.350Z,96592.44
2023-05-19T06:12:45.586Z,96599.50
2023-05-19T06:14:20.752Z,96601.44
2023-05-19T06:15:54.860Z,96601.97
2023-05-19T06:17:27.848Z,96604.53
2023-05-19T06:19:01.632Z,96606.88
2023-05-19T06:20:50.443Z,96597.75
2023-05-19T06:22:22.401Z,96598.34
2023-05-19T06:23:57.009Z,96599.84
2023-05-19T06:25:32.911Z,96600.75
2023-05-19T06:27:07.356Z,96596.25
2023-05-19T06:28:42.335Z,96596.31
2023-05-19T06:30:28.984Z,96600.66
2023-05-19T06:32:01.106Z,96598.13
2023-05-19T06:33:32.966Z,96601.22
2023-05-19T06:35:06.351Z,96601.25
2023-05-19T06:36:38.149Z,96598.47
2023-05-19T06:38:10.074Z,96598.91
2023-05-19T06:39:43.698Z,96601.34
2023-05-19T06:41:17.098Z,96600.22
2023-05-19T06:42:49.013Z,96603.47
2023-05-19T06:44:22.718Z,96604.25
2023-05-19T06:45:54.550Z,96608.13
2023-05-19T06:47:26.492Z,96612.78
2023-05-19T06:48:58.538Z,96610.19
2023-05-19T06:50:30.625Z,96613.53
2023-05-19T06:52:02.504Z,96605.94
2023-05-19T06:53:37.144Z,96602.25
2023-05-19T06:55:09.274Z,96608.00
2023-05-19T06:56:42.575Z,96598.38
2023-05-19T06:58:19.811Z,96596.09
2023-05-19T06:59:51.670Z,96600.28
2023-05-19T07:01:31.309Z,96601.47
2023-05-19T07:03:05.982Z,96603.44
2023-05-19T07:04:38.013Z,96600.78
2023-05-19T07:06:10.182Z,96600.38
2023-05-19T07:07:42.095Z,96602.66
2023-05-19T07:09:16.867Z,96600.41
2023-05-19T07:10:49.893Z,96602.06
2023-05-19T07:12:26.682Z,96606.44
2023-05-19T07:14:02.645Z,96609.03
2023-05-19T07:15:36.574Z,96600.63
2023-05-19T07:17:09.822Z,96598.03
2023-05-19T07:18:44.409Z,96605.28
2023-05-19T07:20:19.245Z,96600.88
2023-05-19T07:21:51.228Z,96601.41
2023-05-19T07:23:29.080Z,96595.09
2023-05-19T07:25:04.015Z,96591.06
2023-05-19T07:26:36.296Z,96594.78
2023-05-19T07:28:14.152Z,96592.09
2023-05-19T07:29:46.186Z,96598.47
2023-05-19T07:31:18.083Z,96601.31
2023-05-19T07:32:50.248Z,96597.69
2023-05-19T07:34:24.344Z,96598.91
2023-05-19T07:35:59.309Z,96602.34
2023-05-19T07:37:34.269Z,96597.50
2023-05-19T07:39:29.899Z,96596.38
2023-05-19T07:41:01.891Z,96594.94
2023-05-19T07:42:33.980Z,96595.78
2023-05-19T07:44:07.991Z,96597.75
2023-05-19T07:45:40.159Z,96596.63
2023-05-19T07:47:12.008Z,96595.69
2023-05-19T07:48:43.775Z,96592.91
2023-05-19T07:50:21.250Z,96596.38
2023-05-19T07:51:53.145Z,96590.44
2023-05-19T07:53:28.033Z,96585.69
2023-05-19T07:54:59.944Z,96592.69
2023-05-19T07:56:38.687Z,96584.91
2023-05-19T07:58:10.692Z,96589.31
2023-05-19T07:59:43.819Z,96586.84
2023-05-19T08:01:20.609Z,96592.59
2023-05-19T08:02:53.386Z,96589.41
2023-05-19T08:04:25.385Z,96588.78
2023-05-19T08:05:57.247Z,96583.56
2023-05-19T08:07:29.039Z,96582.72
2023-05-19T08:09:03.469Z,96580.94
2023-05-19T08:10:35.730Z,96579.75
2023-05-19T08:12:10.863Z,96576.88
2023-05-19T08:13:42.773Z,96575.25
2023-05-19T08:15:16.620Z,96579.59
2023-05-19T08:16:48.508Z,96576.44
2023-05-19T08:18:20.734Z,96588.72
2023-05-19T08:19:53.548Z,96586.16
2023-05-19T08:21:25.534Z,96581.50
2023-05-19T08:23:00.495Z,96582.06
2023-05-19T08:24:34.025Z,96574.63
2023-05-19T08:26:08.733Z,96576.16
2023-05-19T08:27:40.639Z,96577.00
2023-05-19T08:29:15.326Z,96575.81
2023-05-19T08:30:50.581Z,96576.00
2023-05-19T08:32:22.519Z,96575.03
2023-05-19T08:33:54.648Z,96572.84
2023-05-19T08:35:43.582Z,96576.22
2023-05-19T08:37:33.990Z,96571.81
2023-05-19T08:39:06.670Z,96565.66
2023-05-19T08:40:50.450Z,96569.47
2023-05-19T08:42:22.382Z,96566.22
2023-05-19T08:43:54.273Z,96571.44
2023-05-19T08:45:26.315Z,96560.88
2023-05-19T08:47:01.214Z,96564.69
2023-05-19T08:48:36.276Z,96569.91
2023-05-19T08:50:10.834Z,96570.50
2023-05-19T08:51:48.064Z,96565.09
2023-05-19T08:53:33.026Z,96563.47
2023-05-19T08:55:11.109Z,96565.50
2023-05-19T08:56:43.774Z,96556.25
2023-05-19T08:58:16.405Z,96554.91
2023-05-19T08:59:49.251Z,96553.25
2023-05-19T09:01:24.225Z,96558.59
2023-05-19T09:03:05.973Z,96560.06
2023-05-19T09:04:46.198Z,96561.31
2023-05-19T09:06:18.297Z,96560.63
2023-05-19T09:07:50.217Z,96552.59
2023-05-19T09:09:22.295Z,96566.09
2023-05-19T09:10:56.695Z,96555.44
2023-05-19T09:12:30.320Z,96553.13
2023-05-19T09:14:09.530Z,96552.41
2023-05-19T09:15:41.564Z,96556.31
2023-05-19T09:17:13.510Z,96561.81
2023-05-19T09:19:04.507Z,96549.41
2023-05-19T09:20:41.508Z,96547.50
2023-05-19T09:22:36.495Z,96551.31
2023-05-19T09:24:20.317Z,96550.97
2023-05-19T09:25:53.243Z,96553.50
2023-05-19T09:27:26.978Z,96556.84
2023-05-19T09:29:11.992Z,96548.50
2023-05-19T09:30:52.677Z,96547.91
2023-05-19T09:34:32.482Z,96542.44
2023-05-19T09:36:43.324Z,96541.31
2023-05-19T09:38:41.211Z,96546.38
2023-05-19T09:40:23.894Z,96544.00
2023-05-19T09:42:07.722Z,96545.97
2023-05-19T09:43:41.746Z,96545.50
2023-05-19T09:45:34.613Z,96544.47
2023-05-19T09:47:29.250Z,96545.28
2023-05-19T09:49:03.726Z,96539.09
2023-05-19T09:50:45.643Z,96533.41
2023-05-19T09:52:27.218Z,96548.41
2023-05-19T09:56:02.123Z,96539.13
2023-05-19T09:57:36.204Z,96537.56
2023-05-19T09:59:21.929Z,96536.91
2023-05-19T10:00:59.448Z,96528.69
2023-05-19T10:02:53.521Z,96542.50
2023-05-19T10:04:33.238Z,96524.69
2023-05-19T10:06:21.570Z,96524.34
2023-05-19T10:07:57.120Z,96527.13
2023-05-19T10:09:36.446Z,96521.03
2023-05-19T10:11:10.498Z,96517.09
2023-05-19T10:12:52.294Z,96517.56
2023-05-19T10:14:30.680Z,96522.81
2023-05-19T10:16:04.717Z,96515.03
2023-05-19T10:17:47.687Z,96528.06
2023-05-19T10:19:41.408Z,96530.53
2023-05-19T10:21:16.929Z,96522.09
2023-05-19T10:22:51.184Z,96525.50
2023-05-19T10:24:25.266Z,96525.91
2023-05-19T10:26:01.212Z,96534.31
2023-05-19T10:27:34.292Z,96532.94
2023-05-19T10:30:59.458Z,96527.84
2023-05-19T10:33:18.841Z,96526.63
2023-05-19T10:34:36.848Z,96526.00
2023-05-19T10:36:27.705Z,96522.25
2023-05-19T10:38:06.916Z,96525.28
2023-05-19T10:39:44.368Z,96522.84
2023-05-19T10:41:19.982Z,96519.88
2023-05-19T10:43:00.910Z,96519.00
2023-05-19T10:44:40.918Z,96522.97
2023-05-19T10:46:12.754Z,96523.41
2023-05-19T10:47:59.626Z,96519.59
2023-05-19T10:49:41.854Z,96519.00
2023-05-19T10:51:20.160Z,96534.66
2023-05-19T10:52:58.095Z,96530.44
2023-05-19T10:54:50.488Z,96526.53
2023-05-19T10:56:30.182Z,96523.03
2023-05-19T10:58:02.050Z,96520.69
2023-05-19T10:59:38.747Z,96521.31
2023-05-19T11:01:13.565Z,96514.16
2023-05-19T11:02:47.619Z,96520.75
2023-05-19T11:04:20.117Z,96517.06
2023-05-19T11:05:52.414Z,96512.88
2023-05-19T11:07:29.622Z,96519.78
2023-05-19T11:09:05.823Z,96523.53
2023-05-19T11:10:37.586Z,96523.25
2023-05-19T11:12:10.974Z,96521.50
2023-05-19T11:13:43.687Z,96523.22
2023-05-19T11:15:24.229Z,96528.84
2023-05-19T11:17:00.319Z,96519.47
2023-05-19T11:18:50.740Z,96528.91
2023-05-19T11:20:25.155Z,96522.00
2023-05-19T11:22:17.871Z,96522.72
2023-05-19T11:24:02.860Z,96522.88
2023-05-19T11:25:45.259Z,96524.22
2023-05-19T11:27:40.294Z,96521.06
2023-05-19T11:29:12.401Z,96521.19
2023-05-19T11:30:54.844Z,96523.09
2023-05-19T11:32:28.078Z,96526.88
2023-05-19T11:34:10.594Z,96515.72
2023-05-19T11:35:44.551Z,96513.31
2023-05-19T11:37:27.879Z,96516.78
2023-05-19T11:39:04.433Z,96513.66
2023-05-19T11:40:41.378Z,96515.50
2023-05-19T11:42:13.709Z,96514.34
2023-05-19T11:43:51.013Z,96516.47
2023-05-19T11:45:28.952Z,96518.41
2023-05-19T11:48:01.343Z,96515.34
2023-05-19T11:49:43.837Z,96518.91
2023-05-19T11:51:16.561Z,96515.97
2023-05-19T11:53:00.457Z,96506.47
2023-05-19T11:54:39.898Z,96507.72
2023-05-19T11:56:15.336Z,96507.63
2023-05-19T11:58:04.951Z,96509.94
2023-05-19T12:00:09.418Z,96509.53
2023-05-19T12:01:51.201Z,96510.56
2023-05-19T12:03:30.151Z,96508.06
2023-05-19T12:05:08.749Z,96507.69
2023-05-19T12:06:53.778Z,96503.78
2023-05-19T12:08:32.192Z,96509.59
2023-05-19T12:10:16.035Z,96504.88
2023-05-19T12:11:52.529Z,96509.81
2023-05-19T12:13:24.728Z,96509.41
2023-05-19T12:14:57.149Z,96516.63
2023-05-19T12:16:37.989Z,96514.34
2023-05-19T12:18:12.302Z,96506.72
2023-05-19T12:19:50.160Z,96511.84
2023-05-19T12:21:25.188Z,96522.06
2023-05-19T12:23:09.744Z,96520.19
2023-05-19T12:24:42.945Z,96523.88
2023-05-19T12:26:16.965Z,96521.78
2023-05-19T12:27:52.694Z,96518.78
2023-05-19T12:29:28.916Z,96514.09
2023-05-19T12:31:00.819Z,96524.03
2023-05-19T12:33:12.992Z,96519.91
2023-05-19T12:34:51.231Z,96510.59
2023-05-19T12:36:24.199Z,96515.41
2023-05-19T12:37:58.383Z,96507.72
2023-05-19T12:39:30.314Z,96515.59
2023-05-19T12:41:10.294Z,96511.56
2023-05-19T12:43:20.309Z,96504.44
2023-05-19T12:45:03.127Z,96500.75
2023-05-19T12:49:00.839Z,96489.22
2023-05-19T12:50:42.306Z,96492.84
2023-05-19T12:52:14.148Z,96477.09
2023-05-19T12:53:49.210Z,96492.09
2023-05-19T12:55:52.272Z,96488.47
2023-05-19T12:58:28.438Z,96487.56
2023-05-19T13:00:24.514Z,96493.69
2023-05-19T13:02:11.419Z,96494.03
2023-05-19T13:03:48.935Z,96489.31
2023-05-19T13:05:21.332Z,96487.22
2023-05-19T13:07:02.926Z,96486.47
2023-05-19T13:11:06.532Z,96493.16
2023-05-19T13:12:49.695Z,96487.78
2023-05-19T13:14:32.739Z,96481.41
2023-05-19T13:16:25.511Z,96483.44
2023-05-19T13:18:19.713Z,96485.13
2023-05-19T13:20:07.575Z,96480.53
2023-05-19T13:22:03.534Z,96481.19
2023-05-19T13:23:40.489Z,96478.16
2023-05-19T13:25:23.838Z,96489.25
2023-05-19T13:27:01.332Z,96484.28
2023-05-19T13:28:51.234Z,96477.78
2023-05-19T13:30:42.285Z,96476.63
2023-05-19T13:32:30.784Z,96473.38
2023-05-19T13:34:05.463Z,96493.38
2023-05-19T13:36:09.664Z,96476.47
2023-05-19T13:37:54.592Z,96477.91
2023-05-19T13:39:37.627Z,96486.31
2023-05-19T13:41:25.490Z,96483.97
2023-05-19T13:43:53.375Z,96485.19
2023-05-19T13:47:39.084Z,96482.72
2023-05-19T13:51:08.288Z,96489.66
2023-05-19T13:52:40.933Z,96483.47
2023-05-19T13:54:37.032Z,96480.81
2023-05-19T13:56:11.829Z,96485.25
2023-05-19T13:58:11.101Z,96492.28
2023-05-19T14:00:00.249Z,96481.56
2023-05-19T14:01:58.567Z,96480.56
2023-05-19T14:03:33.552Z,96484.91
2023-05-19T14:07:04.790Z,96480.88
2023-05-19T14:08:39.435Z,96478.00
2023-05-19T14:10:15.088Z,96485.44
2023-05-19T14:11:47.349Z,96475.06
2023-05-19T14:13:33.817Z,96484.09
2023-05-19T14:15:10.549Z,96482.13
2023-05-19T14:16:49.046Z,96481.16
2023-05-19T14:18:22.594Z,96483.50
2023-05-19T14:20:04.169Z,96492.22
2023-05-19T14:21:36.969Z,96491.00
2023-05-19T14:23:11.444Z,96485.31
2023-05-19T14:24:59.068Z,96485.69
2023-05-19T14:26:38.370Z,96486.78
2023-05-19T14:28:11.066Z,96480.50
2023-05-19T14:29:46.069Z,96484.59
2023-05-19T14:31:30.320Z,96482.09
2023-05-19T14:33:03.954Z,96484.88
2023-05-19T14:34:39.042Z,96487.25
2023-05-19T14:36:17.083Z,96480.03
2023-05-19T14:37:49.103Z,96474.16
2023-05-19T14:39:24.296Z,96481.94
2023-05-19T14:40:58.295Z,96481.88
2023-05-19T14:42:30.111Z,96480.94
2023-05-19T14:44:11.807Z,96481.34
2023-05-19T14:45:44.274Z,96475.38
2023-05-19T14:47:17.430Z,96476.94
2023-05-19T14:48:57.271Z,96481.28
2023-05-19T14:50:29.498Z,96481.94
2023-05-19T14:52:01.510Z,96477.97
2023-05-19T14:53:33.384Z,96483.44
2023-05-19T14:55:10.913Z,96481.63
2023-05-19T14:56:42.982Z,96481.59
2023-05-19T14:58:28.868Z,96478.38
2023-05-19T15:00:10.500Z,96465.81
2023-05-19T15:01:56.845Z,96474.63
2023-05-19T15:03:37.760Z,96463.94
2023-05-19T15:05:28.189Z,96476.97
2023-05-19T15:08:37.821Z,96474.66
2023-05-19T15:10:09.798Z,96470.81
2023-05-19T15:11:44.770Z,96475.66
2023-05-19T15:13:34.833Z,96486.81
2023-05-19T15:15:08.122Z,96475.03
2023-05-19T15:16:52.608Z,96481.56
2023-05-19T15:18:30.452Z,96483.41
2023-05-19T15:20:03.558Z,96487.94
2023-05-19T15:21:44.736Z,96480.72
2023-05-19T15:23:20.994Z,96479.16
2023-05-19T15:25:04.191Z,96474.69
2023-05-19T15:26:37.970Z,96482.47
2023-05-19T15:28:14.054Z,96474.81
2023-05-19T15:29:49.526Z,96485.41
2023-05-19T15:31:31.491Z,96478.91
2023-05-19T15:33:10.093Z,96477.19
2023-05-19T15:34:42.436Z,96469.09
2023-05-19T15:36:16.972Z,96469.84
2023-05-19T15:37:56.331Z,96471.53
2023-05-19T15:39:33.781Z,96465.06
2023-05-19T15:41:07.213Z,96472.41
2023-05-19T15:45:19.537Z,96466.44
2023-05-19T15:46:51.844Z,96470.16
2023-05-19T15:48:30.408Z,96465.03
2023-05-19T15:50:02.297Z,96474.25
2023-05-19T15:51:35.149Z,96472.97
2023-05-19T15:55:49.043Z,96471.19
2023-05-19T15:57:23.844Z,96460.53
2023-05-19T15:59:26.223Z,96467.78
2023-05-19T16:01:03.251Z,96463.75
2023-05-19T16:02:41.136Z,96467.75
2023-05-19T16:04:23.173Z,96464.09
2023-05-19T16:06:09.122Z,96453.09
2023-05-19T16:07:46.214Z,96463.97
2023-05-19T16:09:23.864Z,96459.88
2023-05-19T16:11:02.147Z,96466.47
2023-05-19T16:13:05.129Z,96456.88
2023-05-19T16:14:43.560Z,96457.22
2023-05-19T16:16:28.032Z,96453.56
2023-05-19T16:18:00.077Z,96451.63
2023-05-19T16:19:59.202Z,96448.69
2023-05-19T16:21:42.588Z,96453.34
2023-05-19T16:23:21.061Z,96452.63
2023-05-19T16:25:10.251Z,96450.72
2023-05-19T16:27:03.875Z,96442.84
2023-05-19T16:28:44.144Z,96447.34
2023-05-19T16:30:31.318Z,96450.03
2023-05-19T16:32:03.640Z,96448.31
2023-05-19T16:36:13.383Z,96445.53
2023-05-19T16:38:15.955Z,96453.53
2023-05-19T16:39:52.288Z,96442.41
2023-05-19T16:41:28.329Z,96442.28
2023-05-19T16:43:19.728Z,96444.47
2023-05-19T16:45:03.510Z,96444.56
2023-05-19T16:48:34.396Z,96444.25
2023-05-19T16:50:19.603Z,96451.38
2023-05-19T16:52:03.458Z,96438.59
2023-05-19T16:53:47.106Z,96436.41
2023-05-19T16:55:22.827Z,96444.09
2023-05-19T16:57:15.511Z,96443.56
2023-05-19T16:58:53.777Z,96443.84
2023-05-19T17:00:38.446Z,96452.88
2023-05-19T17:02:13.609Z,96438.59
2023-05-19T17:03:50.604Z,96434.34
2023-05-19T17:05:30.395Z,96445.19
2023-05-19T17:07:32.030Z,96441.25
2023-05-19T17:09:28.886Z,96434.91
2023-05-19T17:11:13.024Z,96441.91
2023-05-19T17:12:54.990Z,96435.28
2023-05-19T17:14:42.872Z,96444.81
2023-05-19T17:16:18.900Z,96432.22
2023-05-19T17:18:13.955Z,96432.53
2023-05-19T17:20:07.664Z,96434.22
2023-05-19T17:21:42.432Z,96450.50
2023-05-19T17:23:25.850Z,96437.81
2023-05-19T17:24:59.438Z,96437.81
2023-05-19T17:26:32.227Z,96444.34
2023-05-19T17:28:25.734Z,96437.50
2023-05-19T17:30:04.030Z,96446.25
2023-05-19T17:31:43.029Z,96443.94
2023-05-19T17:33:19.510Z,96435.53
2023-05-19T17:34:57.866Z,96437.97
2023-05-19T17:36:30.385Z,96438.91
2023-05-19T17:38:08.130Z,96441.22
2023-05-19T17:39:41.798Z,96446.53
2023-05-19T17:41:18.930Z,96435.50
2023-05-19T17:42:52.974Z,96451.63
2023-05-19T17:44:29.813Z,96446.88
2023-05-19T17:46:06.958Z,96453.44
2023-05-19T17:47:49.894Z,96446.56
2023-05-19T17:49:23.193Z,96458.91
2023-05-19T17:51:03.852Z,96447.72
2023-05-19T17:52:38.171Z,96446.94
2023-05-19T17:54:17.190Z,96445.44
2023-05-19T17:55:56.122Z,96445.81
2023-05-19T17:57:34.328Z,96441.16
2023-05-19T18:01:01.209Z,96442.41
2023-05-19T18:02:35.193Z,96436.53
2023-05-19T18:04:20.319Z,96437.72
2023-05-19T18:05:54.758Z,96449.38
2023-05-19T18:07:41.761Z,96440.13
2023-05-19T18:09:32.682Z,96452.50
2023-05-19T18:11:08.126Z,96443.03
2023-05-19T18:13:04.084Z,96439.75
2023-05-19T18:16:52.522Z,96445.56
2023-05-19T18:18:59.853Z,96447.56
2023-05-19T18:23:34.270Z,96448.25
2023-05-19T18:25:28.868Z,96446.59
2023-05-19T18:27:03.489Z,96436.09
2023-05-19T18:30:43.854Z,96444.53
2023-05-19T18:32:31.835Z,96442.88
2023-05-19T18:34:09.797Z,96445.06
2023-05-19T18:38:05.414Z,96449.59
2023-05-19T18:39:39.812Z,96443.00
2023-05-19T18:41:16.969Z,96438.03
2023-05-19T18:43:01.190Z,96432.53
2023-05-19T18:44:50.142Z,96436.03
2023-05-19T18:46:31.075Z,96429.78
2023-05-19T18:48:15.673Z,96430.22
2023-05-19T18:49:54.553Z,96432.47
2023-05-19T18:51:28.012Z,96435.78
2023-05-19T18:53:00.164Z,96435.31
2023-05-19T18:54:51.193Z,96432.88
2023-05-19T18:56:40.328Z,96429.34
2023-05-19T18:58:12.408Z,96432.13
2023-05-19T18:59:54.459Z,96425.53
2023-05-19T19:01:26.737Z,96437.53
2023-05-19T19:03:02.750Z,96439.06
2023-05-19T19:04:51.635Z,96437.84
2023-05-19T19:06:53.120Z,96440.06
2023-05-19T19:08:28.161Z,96440.31
2023-05-19T19:10:08.481Z,96434.91
2023-05-19T19:11:50.273Z,96442.06
2023-05-19T19:13:28.327Z,96436.56
2023-05-19T19:15:01.287Z,96447.28
2023-05-19T19:16:42.374Z,96437.84
2023-05-19T19:18:33.827Z,96434.91
2023-05-19T19:20:11.494Z,96435.56
2023-05-19T19:21:43.292Z,96444.28
2023-05-19T19:23:14.951Z,96445.16
2023-05-19T19:24:46.812Z,96436.88
2023-05-19T19:26:18.412Z,96446.09
2023-05-19T19:27:50.096Z,96449.38
2023-05-19T19:29:21.962Z,96456.50
2023-05-19T19:30:53.835Z,96450.56
2023-05-19T19:32:25.698Z,96458.75
2023-05-19T19:34:03.659Z,96451.84
2023-05-19T19:35:36.910Z,96456.00
2023-05-19T19:37:08.534Z,96460.41
2023-05-19T19:38:40.230Z,96455.06
2023-05-19T19:40:12.743Z,96453.34
2023-05-19T19:41:44.394Z,96447.88
2023-05-19T19:43:16.027Z,96455.59
2023-05-19T19:44:47.688Z,96449.06